Time;durP1;ratioP1;P1;durP2;ratioP2;P2;SDS_P1;SDS_P2;PMS_P1;PMS_P2;Temp;Humidity;BMP_temperature;BMP_pressure;BME280_temperature;BME280_humidity;BME280_pressure;Samples;Min_cycle;Max_cycle;Signal;HPM_P1;HPM_P2
2021/09/29 00:00:24;;;;;;;2.55;0.10;;;24.40;47.80;;;;;;5066964;28;20044;-46
2021/09/29 00:02:52;;;;;;;1.60;0.10;;;24.40;47.80;;;;;;5061243;28;20063;-47
2021/09/29 00:05:19;;;;;;;0.52;0.10;;;24.40;47.80;;;;;;5065408;28;20037;-46
2021/09/29 00:07:47;;;;;;;2.97;0.10;;;24.30;47.80;;;;;;5056876;28;20056;-46
2021/09/29 00:10:15;;;;;;;1.75;0.20;;;24.30;47.80;;;;;;5056244;28;20049;-44
2021/09/29 00:12:42;;;;;;;2.15;0.10;;;24.30;47.90;;;;;;5055260;28;20053;-46
2021/09/29 00:15:13;;;;;;;1.15;0.08;;;24.30;47.80;;;;;;5055504;28;20067;-46
2021/09/29 00:17:41;;;;;;;0.38;0.05;;;24.40;48.00;;;;;;5071024;28;20501;-46
2021/09/29 00:20:10;;;;;;;0.85;0.10;;;24.30;47.90;;;;;;5065379;28;20037;-46
2021/09/29 00:22:37;;;;;;;0.40;0.40;;;24.30;48.00;;;;;;5055333;28;20532;-46
2021/09/29 00:25:08;;;;;;;1.75;0.10;;;24.30;48.00;;;;;;5070736;28;20036;-48
2021/09/29 00:27:36;;;;;;;1.27;0.00;;;24.30;48.10;;;;;;5055429;28;20044;-46
2021/09/29 00:30:05;;;;;;;0.25;0.10;;;24.30;48.10;;;;;;5058401;28;20671;-47
2021/09/29 00:32:33;;;;;;;1.50;0.68;;;24.30;48.10;;;;;;5065842;28;20036;-47
2021/09/29 00:35:00;;;;;;;3.35;0.30;;;24.30;48.20;;;;;;5066097;28;20036;-46
2021/09/29 00:37:28;;;;;;;0.10;0.10;;;24.30;48.20;;;;;;5050810;28;20041;-47
2021/09/29 00:39:55;;;;;;;0.55;0.20;;;24.20;48.20;;;;;;5053872;28;20036;-49
2021/09/29 00:42:24;;;;;;;3.10;0.10;;;24.30;48.20;;;;;;5054988;28;20525;-46
2021/09/29 00:44:51;;;;;;;3.03;0.10;;;24.30;48.30;;;;;;5054300;28;20611;-47
2021/09/29 00:47:18;;;;;;;0.40;0.10;;;24.20;48.30;;;;;;5054170;28;20073;-48
2021/09/29 00:49:46;;;;;;;1.65;0.10;;;24.30;48.30;;;;;;5055702;28;20044;-48
2021/09/29 00:52:13;;;;;;;0.60;0.32;;;24.30;48.40;;;;;;5050804;28;20041;-49
2021/09/29 00:54:41;;;;;;;0.88;0.00;;;24.20;48.30;;;;;;5072997;28;20401;-45
2021/09/29 00:57:09;;;;;;;0.10;0.08;;;24.30;48.30;;;;;;5055191;28;20103;-46
2021/09/29 00:59:37;;;;;;;0.55;0.10;;;24.20;48.30;;;;;;5055997;28;20037;-46
2021/09/29 01:02:05;;;;;;;0.10;0.00;;;24.20;48.30;;;;;;5063483;28;20041;-47
2021/09/29 01:04:33;;;;;;;1.55;0.17;;;24.20;48.30;;;;;;5056373;28;20033;-49
2021/09/29 01:07:05;;;;;;;0.80;0.00;;;24.20;48.40;;;;;;5066631;28;20052;-45
2021/09/29 01:09:39;;;;;;;0.55;0.00;;;24.20;48.50;;;;;;5058272;28;20051;-46
2021/09/29 01:12:13;;;;;;;1.50;0.10;;;24.20;48.50;;;;;;5053184;28;20051;-46
2021/09/29 01:14:46;;;;;;;2.05;0.13;;;24.20;48.50;;;;;;5052260;28;20509;-50
2021/09/29 01:17:18;;;;;;;1.95;0.10;;;24.20;49.30;;;;;;5053796;28;20524;-48
2021/09/29 01:19:59;;;;;;;0.38;0.05;;;24.20;48.70;;;;;;5051694;28;20056;-47
2021/09/29 01:22:40;;;;;;;6.32;0.20;;;24.20;48.80;;;;;;5049168;28;25375;-47
2021/09/29 01:25:13;;;;;;;0.10;0.00;;;24.20;48.80;;;;;;5049093;28;20040;-48
2021/09/29 01:27:42;;;;;;;6.07;0.10;;;24.20;48.80;;;;;;5059948;28;20079;-47
2021/09/29 01:30:10;;;;;;;2.92;0.00;;;24.20;48.90;;;;;;5059585;28;20044;-48
2021/09/29 01:32:39;;;;;;;0.47;0.10;;;24.10;48.80;;;;;;5057983;28;20029;-46
2021/09/29 01:35:07;;;;;;;1.38;0.10;;;24.20;48.90;;;;;;5058428;28;20052;-46
2021/09/29 01:37:34;;;;;;;2.35;0.10;;;24.10;48.80;;;;;;5050996;28;20055;-48
2021/09/29 01:40:02;;;;;;;1.65;0.10;;;24.10;48.80;;;;;;5056889;28;20048;-47
2021/09/29 01:42:29;;;;;;;0.75;0.45;;;24.10;48.80;;;;;;5051691;28;20057;-46
2021/09/29 01:44:58;;;;;;;0.15;0.00;;;24.10;48.80;;;;;;5050952;28;20067;-48
2021/09/29 01:47:25;;;;;;;1.75;0.10;;;24.10;48.80;;;;;;5054176;28;20497;-47
2021/09/29 01:50:00;;;;;;;2.17;0.10;;;24.10;48.80;;;;;;5061926;28;20051;-46
2021/09/29 01:52:29;;;;;;;11.27;0.10;;;24.10;48.80;;;;;;5051524;28;20632;-47
2021/09/29 01:54:57;;;;;;;0.30;0.00;;;24.10;48.90;;;;;;5062928;28;20059;-46
2021/09/29 01:57:24;;;;;;;1.75;0.40;;;24.10;48.90;;;;;;5049468;28;20135;-46
2021/09/29 01:59:51;;;;;;;0.22;0.17;;;24.10;48.90;;;;;;5054201;28;20044;-46
2021/09/29 02:02:20;;;;;;;0.75;0.30;;;24.10;48.90;;;;;;5058463;28;20072;-46
2021/09/29 02:04:48;;;;;;;0.10;0.00;;;24.10;48.90;;;;;;5049875;28;20056;-46
2021/09/29 02:07:16;;;;;;;0.17;0.00;;;24.10;48.90;;;;;;5064799;28;20517;-48
2021/09/29 02:09:44;;;;;;;0.10;0.10;;;24.10;48.90;;;;;;5053781;28;20129;-46
2021/09/29 02:12:11;;;;;;;2.60;0.03;;;24.10;48.90;;;;;;5052465;28;20311;-46
2021/09/29 02:14:38;;;;;;;1.08;0.10;;;24.10;48.90;;;;;;5057559;28;20166;-47
2021/09/29 02:17:06;;;;;;;0.85;0.10;;;24.10;49.00;;;;;;5062343;28;20127;-46
2021/09/29 02:19:35;;;;;;;1.45;0.00;;;24.10;49.00;;;;;;5049802;28;20045;-46
2021/09/29 02:22:02;;;;;;;1.85;0.00;;;24.10;49.00;;;;;;5051080;28;20044;-46
2021/09/29 02:24:29;;;;;;;0.43;0.00;;;24.10;49.10;;;;;;5065562;28;20036;-45
2021/09/29 02:26:56;;;;;;;1.17;0.00;;;24.10;49.10;;;;;;5055632;28;20491;-45
2021/09/29 02:29:24;;;;;;;0.17;0.00;;;24.10;49.10;;;;;;5054782;28;20037;-48
2021/09/29 02:31:51;;;;;;;0.22;0.00;;;24.10;49.10;;;;;;5063646;28;20040;-46
2021/09/29 02:34:18;;;;;;;1.08;0.00;;;24.00;49.10;;;;;;5048632;28;20044;-45
2021/09/29 02:36:47;;;;;;;0.40;0.00;;;24.00;49.80;;;;;;5053301;28;20124;-47
2021/09/29 02:39:14;;;;;;;0.22;0.05;;;24.00;49.30;;;;;;5060273;28;20531;-46
2021/09/29 02:41:41;;;;;;;0.05;0.00;;;24.00;49.40;;;;;;5057670;28;20036;-47
2021/09/29 02:44:10;;;;;;;2.33;0.08;;;24.00;49.50;;;;;;5055516;28;20051;-46
2021/09/29 02:46:39;;;;;;;1.48;0.30;;;24.00;49.60;;;;;;5062629;28;20033;-46
2021/09/29 02:49:07;;;;;;;0.77;0.10;;;24.00;49.70;;;;;;5064357;28;20036;-49
2021/09/29 02:51:34;;;;;;;0.20;0.20;;;24.00;49.80;;;;;;5053012;28;20044;-46
2021/09/29 02:54:03;;;;;;;0.45;0.10;;;24.00;49.90;;;;;;5057775;28;20052;-46
2021/09/29 02:56:30;;;;;;;0.10;0.00;;;24.00;50.00;;;;;;5056321;28;20053;-47
2021/09/29 02:58:58;;;;;;;0.75;0.00;;;24.00;50.00;;;;;;5049884;28;20039;-46
2021/09/29 03:01:25;;;;;;;1.83;0.08;;;24.00;50.00;;;;;;5063688;28;20034;-46
2021/09/29 03:03:52;;;;;;;0.10;0.00;;;23.90;50.10;;;;;;5064334;28;20032;-46
2021/09/29 03:06:19;;;;;;;0.10;0.10;;;24.00;50.10;;;;;;5060796;28;20063;-49
2021/09/29 03:08:46;;;;;;;0.40;0.10;;;23.90;50.00;;;;;;5062536;28;20040;-47
2021/09/29 03:11:14;;;;;;;0.98;0.10;;;24.00;50.20;;;;;;5064427;28;20048;-47
2021/09/29 03:13:42;;;;;;;0.70;0.10;;;24.00;50.30;;;;;;5064054;28;20579;-48
2021/09/29 03:16:08;;;;;;;1.35;0.10;;;24.00;50.30;;;;;;5065832;28;20053;-45
2021/09/29 03:18:36;;;;;;;0.10;0.10;;;24.00;50.30;;;;;;5049813;28;20048;-46
2021/09/29 03:21:03;;;;;;;0.43;0.00;;;24.00;50.30;;;;;;5051579;28;20048;-45
2021/09/29 03:23:30;;;;;;;2.13;0.03;;;24.00;50.40;;;;;;5048011;28;20045;-46
2021/09/29 03:25:57;;;;;;;2.42;0.10;;;24.00;50.40;;;;;;5052052;28;20114;-46
2021/09/29 03:28:25;;;;;;;2.63;0.40;;;24.00;50.40;;;;;;5045422;28;20037;-47
2021/09/29 03:30:53;;;;;;;0.50;0.10;;;24.00;50.60;;;;;;5063495;28;20045;-47
2021/09/29 03:33:20;;;;;;;0.80;0.00;;;24.00;50.60;;;;;;5060910;28;20196;-48
2021/09/29 03:35:47;;;;;;;0.30;0.00;;;23.90;50.60;;;;;;5064877;28;20051;-46
2021/09/29 03:38:14;;;;;;;1.52;0.28;;;24.00;50.70;;;;;;5059824;28;20044;-47
2021/09/29 03:40:41;;;;;;;2.05;0.20;;;24.00;50.90;;;;;;5063392;28;20039;-46
2021/09/29 03:43:08;;;;;;;0.40;0.10;;;23.90;51.40;;;;;;5047710;28;20044;-47
2021/09/29 03:45:37;;;;;;;1.45;0.10;;;24.00;50.90;;;;;;5061882;28;20045;-46
2021/09/29 03:48:04;;;;;;;1.50;0.10;;;23.90;50.90;;;;;;5060074;28;20044;-46
2021/09/29 03:50:31;;;;;;;0.20;0.10;;;23.90;50.90;;;;;;5059286;28;20040;-50
2021/09/29 03:52:58;;;;;;;2.92;0.05;;;24.00;50.90;;;;;;5059956;28;20056;-46
2021/09/29 03:55:25;;;;;;;0.20;0.10;;;23.90;50.90;;;;;;5063927;28;20124;-51
2021/09/29 03:57:52;;;;;;;0.15;0.05;;;24.00;50.90;;;;;;5062181;28;20053;-46
2021/09/29 04:00:20;;;;;;;0.10;0.00;;;23.90;50.90;;;;;;5059049;28;20420;-47
2021/09/29 04:02:48;;;;;;;0.40;0.00;;;23.90;51.00;;;;;;5058667;28;20402;-49
2021/09/29 04:05:15;;;;;;;2.22;0.00;;;23.90;51.00;;;;;;5054137;28;20045;-48
2021/09/29 04:07:42;;;;;;;1.02;0.55;;;23.90;50.90;;;;;;5052872;28;20077;-47
2021/09/29 04:10:11;;;;;;;0.57;0.22;;;23.90;51.00;;;;;;5053545;28;20041;-49
2021/09/29 04:12:39;;;;;;;0.38;0.10;;;23.90;50.90;;;;;;5052408;28;20033;-46
2021/09/29 04:15:07;;;;;;;0.57;0.00;;;23.90;51.00;;;;;;5053618;28;20043;-47
2021/09/29 04:17:36;;;;;;;0.75;0.00;;;23.90;51.00;;;;;;5053518;28;20072;-45
2021/09/29 04:20:05;;;;;;;1.02;0.08;;;23.90;51.00;;;;;;5053578;28;20045;-47
2021/09/29 04:22:35;;;;;;;1.63;0.38;;;23.90;51.00;;;;;;5051600;28;20474;-47
2021/09/29 04:25:03;;;;;;;0.52;0.00;;;23.90;50.90;;;;;;5058646;28;20048;-46
2021/09/29 04:27:30;;;;;;;0.10;0.00;;;23.90;50.90;;;;;;5051476;28;20049;-51
2021/09/29 04:29:57;;;;;;;5.57;0.08;;;23.90;50.90;;;;;;5059210;28;20032;-45
2021/09/29 04:32:24;;;;;;;1.15;0.20;;;23.90;50.90;;;;;;5059233;28;20037;-46
2021/09/29 04:34:51;;;;;;;0.60;0.15;;;23.90;50.90;;;;;;5054233;28;20037;-46
2021/09/29 04:37:20;;;;;;;0.08;0.00;;;23.90;50.90;;;;;;5052814;28;20055;-47
2021/09/29 04:39:47;;;;;;;0.63;0.00;;;23.90;50.90;;;;;;5066231;28;20044;-46
2021/09/29 04:42:14;;;;;;;1.23;0.10;;;23.90;50.90;;;;;;5053212;28;20056;-45
2021/09/29 04:44:41;;;;;;;0.65;0.00;;;23.90;50.90;;;;;;5060038;28;20041;-46
2021/09/29 04:47:08;;;;;;;0.15;0.00;;;23.90;50.90;;;;;;5062271;28;20851;-46
2021/09/29 04:49:35;;;;;;;0.10;0.10;;;23.90;50.90;;;;;;5052120;28;20509;-45
2021/09/29 04:52:02;;;;;;;0.57;0.10;;;23.90;50.90;;;;;;5051984;28;20095;-46
2021/09/29 04:54:31;;;;;;;0.15;0.00;;;23.90;51.00;;;;;;5059397;28;20539;-46
2021/09/29 04:56:58;;;;;;;0.40;0.00;;;23.90;51.00;;;;;;5055175;28;20043;-45
2021/09/29 04:59:25;;;;;;;0.57;0.00;;;23.90;51.00;;;;;;5053487;28;20064;-46
2021/09/29 05:01:54;;;;;;;0.10;0.00;;;23.90;51.10;;;;;;5063888;28;20037;-48
2021/09/29 05:04:24;;;;;;;0.73;0.10;;;23.90;51.10;;;;;;5065878;28;20127;-46
2021/09/29 05:06:54;;;;;;;0.00;0.00;;;23.90;51.10;;;;;;5066330;28;20795;-50
2021/09/29 05:09:21;;;;;;;0.52;0.10;;;23.90;51.20;;;;;;5055836;28;20040;-46
2021/09/29 05:11:59;;;;;;;0.85;0.00;;;23.90;51.30;;;;;;5062331;28;20041;-47
2021/09/29 05:14:26;;;;;;;0.75;0.00;;;23.90;51.50;;;;;;5062983;28;20227;-46
2021/09/29 05:16:53;;;;;;;2.40;0.10;;;23.90;51.50;;;;;;5063652;28;20044;-47
2021/09/29 05:19:20;;;;;;;1.40;0.00;;;23.90;51.50;;;;;;5064037;28;20044;-48
2021/09/29 05:21:47;;;;;;;0.43;0.03;;;23.90;51.50;;;;;;5053921;28;20040;-47
2021/09/29 05:24:14;;;;;;;0.40;0.00;;;23.90;51.50;;;;;;5061729;28;20059;-49
2021/09/29 05:26:41;;;;;;;1.00;0.50;;;23.90;51.50;;;;;;5056882;28;20041;-47
2021/09/29 05:29:12;;;;;;;0.08;0.00;;;23.90;51.50;;;;;;5054077;28;20074;-47
2021/09/29 05:31:40;;;;;;;0.00;0.00;;;23.90;51.40;;;;;;5064126;28;20033;-48
2021/09/29 05:34:07;;;;;;;0.00;0.00;;;23.90;51.50;;;;;;5051736;28;20066;-46
2021/09/29 05:36:34;;;;;;;1.92;1.10;;;23.90;51.50;;;;;;5061604;28;20063;-48
2021/09/29 05:39:01;;;;;;;0.00;0.00;;;23.90;51.40;;;;;;5054133;28;20052;-46
2021/09/29 05:41:28;;;;;;;0.00;0.00;;;23.90;51.40;;;;;;5056222;28;20128;-48
2021/09/29 05:43:55;;;;;;;0.10;0.10;;;23.80;51.30;;;;;;5051948;28;20041;-47
2021/09/29 05:46:23;;;;;;;0.47;0.22;;;23.90;51.40;;;;;;5064621;28;20032;-47
2021/09/29 05:48:51;;;;;;;2.20;0.00;;;23.90;51.40;;;;;;5065599;28;20148;-48
2021/09/29 05:51:19;;;;;;;0.00;0.00;;;23.80;51.40;;;;;;5064218;28;20060;-47
2021/09/29 05:53:46;;;;;;;1.00;0.03;;;23.90;51.40;;;;;;5056064;28;20072;-47
2021/09/29 05:56:14;;;;;;;0.50;0.50;;;23.90;51.60;;;;;;5056873;28;20056;-47
2021/09/29 05:58:41;;;;;;;0.00;0.00;;;23.80;51.40;;;;;;5058092;28;20045;-47
2021/09/29 06:01:08;;;;;;;0.00;0.00;;;23.80;51.40;;;;;;5065972;28;20049;-47
2021/09/29 06:03:37;;;;;;;0.00;0.00;;;23.80;51.40;;;;;;5050579;28;20048;-47
2021/09/29 06:06:04;;;;;;;0.00;0.00;;;23.80;51.40;;;;;;5051548;28;20045;-47
2021/09/29 06:08:31;;;;;;;3.22;0.00;;;23.80;51.40;;;;;;5051529;28;20110;-48
2021/09/29 06:10:58;;;;;;;0.10;0.00;;;23.80;51.40;;;;;;5051862;28;20043;-47
2021/09/29 06:13:26;;;;;;;0.03;0.00;;;23.80;51.50;;;;;;5050264;28;20106;-46
2021/09/29 06:15:54;;;;;;;0.47;0.00;;;23.80;51.50;;;;;;5064782;28;20051;-47
2021/09/29 06:18:21;;;;;;;0.10;0.00;;;23.80;51.50;;;;;;5059810;28;20425;-48
2021/09/29 06:20:52;;;;;;;1.75;0.00;;;23.80;51.60;;;;;;5061638;28;20064;-48
2021/09/29 06:23:21;;;;;;;0.20;0.00;;;23.90;51.70;;;;;;5062315;28;20041;-49
2021/09/29 06:25:48;;;;;;;0.95;0.00;;;23.80;51.70;;;;;;5063245;28;20052;-47
2021/09/29 06:28:15;;;;;;;0.28;0.00;;;23.80;51.70;;;;;;5063814;28;20040;-49
2021/09/29 06:30:43;;;;;;;4.57;0.00;;;23.80;51.70;;;;;;5063747;28;20524;-47
2021/09/29 06:33:10;;;;;;;0.00;0.00;;;23.80;51.80;;;;;;5059926;28;20098;-48
2021/09/29 06:35:37;;;;;;;5.05;0.00;;;23.80;51.90;;;;;;5062147;28;20036;-46
2021/09/29 06:38:08;;;;;;;2.92;1.25;;;23.80;51.90;;;;;;5064041;28;20515;-46
2021/09/29 06:40:35;;;;;;;0.30;0.10;;;23.90;52.70;;;;;;5064076;28;20167;-46
2021/09/29 06:43:04;;;;;;;3.78;0.10;;;23.80;52.50;;;;;;5067385;28;20037;-46
2021/09/29 06:45:32;;;;;;;0.38;0.00;;;23.90;52.50;;;;;;5066850;28;20127;-48
2021/09/29 06:47:59;;;;;;;0.30;0.08;;;23.80;52.50;;;;;;5062451;28;20106;-46
2021/09/29 06:50:26;;;;;;;2.90;0.00;;;23.80;52.50;;;;;;5062826;28;20048;-47
2021/09/29 06:52:54;;;;;;;1.95;0.00;;;23.90;52.50;;;;;;5065236;28;20049;-47
2021/09/29 06:55:22;;;;;;;2.08;0.38;;;23.90;52.50;;;;;;5063367;28;20063;-47
2021/09/29 06:57:50;;;;;;;0.50;0.00;;;23.90;52.50;;;;;;5066423;28;20040;-49
2021/09/29 07:00:17;;;;;;;0.10;0.00;;;23.80;52.50;;;;;;5065617;28;20114;-47
2021/09/29 07:02:47;;;;;;;0.15;0.10;;;23.80;52.40;;;;;;5061160;28;20043;-49
2021/09/29 07:05:15;;;;;;;0.00;0.00;;;23.90;52.50;;;;;;5063472;28;20047;-45
2021/09/29 07:07:43;;;;;;;3.40;0.28;;;23.90;52.50;;;;;;5053285;28;20056;-44
2021/09/29 07:10:11;;;;;;;1.15;0.10;;;23.90;52.70;;;;;;5054985;28;20036;-45
2021/09/29 07:12:41;;;;;;;1.75;0.20;;;23.90;52.80;;;;;;5066152;28;20588;-44
2021/09/29 07:15:10;;;;;;;3.53;0.10;;;23.90;52.70;;;;;;5064394;28;20147;-46
2021/09/29 07:17:37;;;;;;;7.57;0.25;;;23.90;52.90;;;;;;5066231;28;20033;-46
2021/09/29 07:20:09;;;;;;;3.95;0.45;;;23.90;52.90;;;;;;5065110;28;20048;-46
2021/09/29 07:22:36;;;;;;;3.80;0.10;;;23.80;53.10;;;;;;5049822;28;20048;-45
2021/09/29 07:25:04;;;;;;;3.13;0.10;;;23.80;53.10;;;;;;5055660;28;20060;-47
2021/09/29 07:27:31;;;;;;;0.10;0.00;;;23.90;53.00;;;;;;5050074;28;20040;-46
2021/09/29 07:30:00;;;;;;;2.70;0.10;;;23.90;52.90;;;;;;5058566;28;20068;-46
2021/09/29 07:32:27;;;;;;;0.65;0.10;;;23.80;53.40;;;;;;5057977;28;20128;-47
2021/09/29 07:34:54;;;;;;;1.85;0.00;;;23.80;52.70;;;;;;5048893;28;20056;-45
2021/09/29 07:37:21;;;;;;;3.83;0.10;;;23.90;52.60;;;;;;5055024;28;20076;-46
2021/09/29 07:39:48;;;;;;;6.20;0.55;;;23.80;52.50;;;;;;5052244;28;20612;-46
2021/09/29 07:42:16;;;;;;;2.80;0.10;;;23.90;52.50;;;;;;5063891;28;20056;-47
2021/09/29 07:44:43;;;;;;;1.20;0.08;;;23.90;52.40;;;;;;5062408;28;20116;-48
2021/09/29 07:47:11;;;;;;;0.93;0.00;;;23.90;52.30;;;;;;5053479;28;20061;-46
2021/09/29 07:49:39;;;;;;;3.40;0.00;;;23.80;52.20;;;;;;5068515;28;20040;-47
2021/09/29 07:52:07;;;;;;;0.10;0.00;;;23.80;52.10;;;;;;5053412;28;20049;-46
2021/09/29 07:54:34;;;;;;;0.90;0.00;;;23.80;52.10;;;;;;5059112;28;20041;-47
2021/09/29 07:57:01;;;;;;;0.95;0.10;;;23.80;52.00;;;;;;5056539;28;20045;-47
2021/09/29 07:59:28;;;;;;;0.28;0.10;;;23.80;52.00;;;;;;5059965;28;20458;-48
2021/09/29 08:01:55;;;;;;;0.13;0.00;;;23.90;52.00;;;;;;5066280;28;20045;-49
2021/09/29 08:04:24;;;;;;;1.08;0.00;;;23.80;51.90;;;;;;5057978;28;20033;-50
2021/09/29 08:06:51;;;;;;;0.95;0.00;;;23.90;51.90;;;;;;5051533;28;20059;-48
2021/09/29 08:09:18;;;;;;;0.85;0.65;;;23.90;51.90;;;;;;5054960;28;20051;-48
2021/09/29 08:11:45;;;;;;;0.95;0.00;;;23.90;51.80;;;;;;5059610;28;20051;-50
2021/09/29 08:14:13;;;;;;;1.27;0.00;;;23.90;51.80;;;;;;5054729;28;20055;-49
2021/09/29 08:16:40;;;;;;;0.30;0.10;;;23.90;51.80;;;;;;5053706;28;20040;-50
2021/09/29 08:19:07;;;;;;;0.63;0.10;;;23.90;51.70;;;;;;5051128;28;20087;-45
2021/09/29 08:21:36;;;;;;;1.85;0.55;;;23.90;51.60;;;;;;5056133;28;20091;-46
2021/09/29 08:24:08;;;;;;;0.60;0.08;;;23.90;51.60;;;;;;5055451;28;20041;-49
2021/09/29 08:26:47;;;;;;;1.40;0.35;;;23.90;51.50;;;;;;5053567;28;20149;-45
2021/09/29 08:32:07;;;;;;;1.02;0.47;;;23.90;51.40;;;;;;5045282;28;20051;-49
2021/09/29 08:34:44;;;;;;;0.77;0.00;;;23.90;51.40;;;;;;5064691;28;20037;-46
2021/09/29 08:37:27;;;;;;;1.38;0.10;;;23.90;51.40;;;;;;5051311;28;20053;-48
2021/09/29 08:39:59;;;;;;;0.10;0.00;;;23.90;51.30;;;;;;5066974;28;20066;-46
2021/09/29 08:42:34;;;;;;;1.30;0.13;;;23.90;51.30;;;;;;5055435;28;20235;-50
2021/09/29 08:45:03;;;;;;;4.20;0.10;;;23.90;51.30;;;;;;5054188;28;20045;-47
2021/09/29 08:47:35;;;;;;;0.45;0.00;;;23.90;51.20;;;;;;5058964;28;20040;-50
2021/09/29 08:50:12;;;;;;;0.52;0.38;;;23.90;51.20;;;;;;5066456;28;20419;-47
2021/09/29 09:17:51;;;;;;;1.20;0.10;;;23.90;50.80;;;;;;4991385;28;20535;-47
2021/09/29 09:20:22;;;;;;;0.20;0.00;;;23.90;50.70;;;;;;4996673;28;20554;-47
2021/09/29 09:22:52;;;;;;;1.25;0.00;;;23.90;50.70;;;;;;5003260;28;20554;-47
2021/09/29 09:25:32;;;;;;;0.75;0.00;;;24.00;50.60;;;;;;5001800;28;20593;-48
2021/09/29 09:27:59;;;;;;;0.95;0.10;;;24.00;50.60;;;;;;4987656;28;20048;-47
2021/09/29 09:30:28;;;;;;;0.57;0.03;;;23.90;50.50;;;;;;5002631;28;20462;-47
2021/09/29 09:32:57;;;;;;;0.00;0.00;;;24.00;50.50;;;;;;4979424;28;20050;-47
2021/09/29 09:35:27;;;;;;;0.10;0.00;;;24.00;50.40;;;;;;4988099;28;20069;-46
2021/09/29 09:37:56;;;;;;;0.32;0.00;;;24.00;50.30;;;;;;5010153;28;20124;-46
2021/09/29 09:40:29;;;;;;;1.45;0.00;;;24.00;50.30;;;;;;5048686;28;20853;-48
2021/09/29 09:42:59;;;;;;;0.65;0.43;;;24.00;50.20;;;;;;5068439;28;20055;-46
2021/09/29 09:45:39;;;;;;;0.10;0.00;;;24.00;50.20;;;;;;5048299;28;20044;-49
2021/09/29 09:48:14;;;;;;;2.72;0.10;;;24.10;50.20;;;;;;5052838;28;20122;-47
2021/09/29 09:50:42;;;;;;;;;;;24.10;50.20;;;;;;5055866;28;20501;-46
2021/09/29 09:53:12;;;;;;;0.10;0.00;;;24.00;50.20;;;;;;5051472;28;19978;-49
2021/09/29 09:55:42;;;;;;;2.63;0.00;;;24.00;50.20;;;;;;5067757;28;20040;-46
2021/09/29 09:58:09;;;;;;;0.98;0.00;;;24.00;50.10;;;;;;5050852;28;20071;-46
2021/09/29 10:00:36;;;;;;;0.38;0.00;;;24.10;50.10;;;;;;5061327;28;20484;-48
2021/09/29 10:03:04;;;;;;;1.25;0.00;;;24.10;50.00;;;;;;5064624;28;20089;-47
2021/09/29 10:05:32;;;;;;;0.50;0.10;;;24.10;49.90;;;;;;5065381;28;20036;-46
2021/09/29 10:08:04;;;;;;;1.02;0.10;;;24.10;49.80;;;;;;5063319;28;20063;-49
2021/09/29 10:10:35;;;;;;;1.20;0.00;;;24.10;49.70;;;;;;5054722;28;20127;-50
2021/09/29 10:27:11;;;;;;;0.85;0.30;;;24.20;49.40;;;;;;5025402;28;20088;-46
2021/09/29 10:29:42;;;;;;;0.68;0.68;;;24.20;49.40;;;;;;5015503;28;20619;-47
2021/09/29 10:32:16;;;;;;;0.65;0.10;;;24.20;49.30;;;;;;5023220;28;20056;-50
2021/09/29 10:34:57;;;;;;;0.32;0.00;;;24.20;49.30;;;;;;5009971;28;20041;-47
2021/09/29 10:37:50;;;;;;;0.20;0.10;;;24.20;49.30;;;;;;5009753;28;20053;-46
2021/09/29 10:40:51;;;;;;;0.47;0.20;;;24.20;49.20;;;;;;5022576;28;20133;-48
2021/09/29 10:43:23;;;;;;;0.45;0.08;;;24.20;49.00;;;;;;5024896;28;20045;-50
2021/09/29 10:46:06;;;;;;;0.68;0.10;;;24.30;49.10;;;;;;5017203;28;20136;-48
2021/09/29 10:48:46;;;;;;;0.85;0.10;;;24.30;48.90;;;;;;5013021;28;20057;-48
2021/09/29 11:03:14;;;;;;;1.50;0.10;;;24.40;48.70;;;;;;5058015;28;20567;-47
2021/09/29 11:09:00;;;;;;;2.83;0.10;;;24.40;48.70;;;;;;4991278;28;20099;-46
2021/09/29 11:28:49;;;;;;;0.73;0.10;;;24.50;48.00;;;;;;4948691;28;20767;-46
2021/09/29 11:31:19;;;;;;;0.38;0.00;;;24.50;47.90;;;;;;4963547;28;20049;-47
2021/09/29 11:33:56;;;;;;;0.10;0.00;;;24.60;47.80;;;;;;4954282;28;20106;-49
2021/09/29 11:36:42;;;;;;;1.02;0.10;;;24.60;47.60;;;;;;4961278;28;20074;-50
2021/09/29 12:08:05;;;;;;;1.08;0.10;;;24.60;47.10;;;;;;4997526;28;20146;-49
2021/09/29 12:10:36;;;;;;;0.00;0.00;;;24.60;47.10;;;;;;4991527;28;20043;-47
2021/09/29 12:13:07;;;;;;;0.75;0.10;;;24.60;47.10;;;;;;5004248;28;20585;-50
2021/09/29 12:15:44;;;;;;;1.05;0.20;;;24.70;47.10;;;;;;4998338;28;20189;-47
2021/09/29 12:18:12;;;;;;;0.57;0.10;;;24.80;47.00;;;;;;5008253;28;20530;-48
2021/09/29 12:20:50;;;;;;;0.10;0.10;;;24.80;47.10;;;;;;5032739;28;20044;-47
2021/09/29 12:23:18;;;;;;;0.30;0.05;;;24.90;46.90;;;;;;5039456;28;20523;-46
2021/09/29 12:25:52;;;;;;;0.45;0.00;;;24.90;46.90;;;;;;5044248;28;20061;-46
2021/09/29 12:28:31;;;;;;;0.98;0.30;;;24.90;46.80;;;;;;5047984;28;20048;-46
2021/09/29 12:31:31;;;;;;;0.15;0.10;;;24.90;46.70;;;;;;5067090;28;20068;-46
2021/09/29 12:34:09;;;;;;;0.30;0.20;;;25.00;46.60;;;;;;5050401;28;20420;-47
2021/09/29 12:36:38;;;;;;;0.10;0.10;;;25.00;46.50;;;;;;5055312;28;20041;-48
2021/09/29 12:39:17;;;;;;;0.10;0.03;;;25.00;46.40;;;;;;5061348;28;20056;-47
2021/09/29 12:41:49;;;;;;;0.40;0.20;;;25.10;46.40;;;;;;5062849;28;20374;-50
2021/09/29 12:44:18;;;;;;;0.80;0.57;;;25.10;46.30;;;;;;5063157;28;20055;-48
2021/09/29 12:46:48;;;;;;;0.88;0.10;;;25.10;46.20;;;;;;5064803;28;20501;-47
2021/09/29 12:49:20;;;;;;;0.70;0.10;;;25.20;46.20;;;;;;5066932;28;20049;-47
2021/09/29 12:51:54;;;;;;;0.95;0.20;;;25.20;46.10;;;;;;5066293;28;20102;-46
2021/09/29 12:54:23;;;;;;;0.38;0.20;;;25.30;46.00;;;;;;5063852;28;20044;-47
2021/09/29 12:56:51;;;;;;;0.38;0.00;;;25.30;46.00;;;;;;5062281;28;20828;-47
2021/09/29 12:59:19;;;;;;;1.08;0.25;;;25.30;45.80;;;;;;5062685;28;20051;-46
2021/09/29 13:01:46;;;;;;;0.17;0.10;;;25.30;45.70;;;;;;5066261;28;20041;-50
2021/09/29 13:04:13;;;;;;;1.13;0.03;;;25.30;45.60;;;;;;5051328;28;20072;-47
2021/09/29 13:06:41;;;;;;;0.73;0.10;;;25.30;45.50;;;;;;5064893;28;20052;-47
2021/09/29 13:09:08;;;;;;;0.20;0.10;;;25.40;45.50;;;;;;5062142;28;20033;-48
2021/09/29 13:11:35;;;;;;;1.95;0.30;;;25.40;45.40;;;;;;5062170;28;20123;-46
2021/09/29 13:14:03;;;;;;;0.35;0.10;;;25.40;45.40;;;;;;5063818;28;20758;-45
2021/09/29 13:16:32;;;;;;;3.78;0.10;;;25.40;45.30;;;;;;5051119;28;20034;-46
2021/09/29 13:19:02;;;;;;;0.70;0.08;;;25.50;45.40;;;;;;5066347;28;20048;-47
2021/09/29 13:21:33;;;;;;;0.20;0.10;;;25.50;45.40;;;;;;5048715;28;20095;-46
2021/09/29 13:24:03;;;;;;;0.10;0.00;;;25.50;45.40;;;;;;5048858;28;20056;-49
2021/09/29 13:35:17;;;;;;;0.82;0.10;;;25.40;45.20;;;;;;4987310;28;20050;-47
2021/09/29 13:37:44;;;;;;;0.10;0.10;;;25.50;45.20;;;;;;5002742;28;20054;-46
2021/09/29 13:40:12;;;;;;;0.20;0.00;;;25.50;45.20;;;;;;4989540;28;20042;-47
2021/09/29 13:42:39;;;;;;;0.20;0.20;;;25.50;45.10;;;;;;5002050;28;20550;-49
2021/09/29 13:45:11;;;;;;;0.30;0.08;;;25.50;45.00;;;;;;4989319;28;20431;-47
2021/09/29 13:47:38;;;;;;;0.30;0.00;;;25.50;45.00;;;;;;4993971;28;20128;-49
2021/09/29 13:50:06;;;;;;;0.20;0.00;;;25.60;45.00;;;;;;4999466;28;20045;-47
2021/09/29 13:52:33;;;;;;;0.20;0.10;;;25.60;44.90;;;;;;5002054;28;20138;-47
2021/09/29 13:55:03;;;;;;;0.40;0.05;;;25.70;44.90;;;;;;4990253;28;20042;-48
2021/09/29 13:57:34;;;;;;;0.10;0.10;;;25.70;44.90;;;;;;5002299;28;20046;-48
2021/09/29 14:00:11;;;;;;;0.20;0.00;;;25.70;44.80;;;;;;4997862;28;20041;-48
2021/09/29 14:30:16;;;;;;;0.30;0.00;;;25.70;44.40;;;;;;4944390;29;20047;-46
2021/09/29 14:35:28;;;;;;;0.10;0.10;;;25.60;44.30;;;;;;4945390;29;20051;-45
2021/09/29 14:37:55;;;;;;;0.10;0.00;;;25.60;44.10;;;;;;4946580;29;20609;-47
2021/09/29 14:40:24;;;;;;;0.73;0.03;;;25.60;44.10;;;;;;4931734;29;20046;-50
2021/09/29 14:42:51;;;;;;;0.25;0.10;;;25.60;44.00;;;;;;5001051;28;20483;-50
2021/09/29 14:45:19;;;;;;;1.08;0.03;;;25.60;44.00;;;;;;5039916;28;20045;-47
2021/09/29 14:47:46;;;;;;;0.93;0.20;;;25.60;43.90;;;;;;5037496;28;20092;-53
2021/09/29 14:50:15;;;;;;;0.98;0.00;;;25.50;43.80;;;;;;5033445;28;20049;-48
2021/09/29 14:52:43;;;;;;;0.68;0.10;;;25.60;43.90;;;;;;5030819;28;20044;-50
2021/09/29 14:55:10;;;;;;;0.20;0.00;;;25.60;43.90;;;;;;5028763;28;20045;-49
2021/09/29 14:57:37;;;;;;;0.10;0.10;;;25.60;43.80;;;;;;5030499;28;20067;-48
2021/09/29 15:00:06;;;;;;;0.13;0.00;;;25.60;43.80;;;;;;5038767;28;20560;-49
2021/09/29 15:02:33;;;;;;;1.65;0.00;;;25.60;43.80;;;;;;5039518;28;20099;-47
2021/09/29 15:05:01;;;;;;;1.13;0.10;;;25.60;43.80;;;;;;5044491;28;20045;-46
2021/09/29 15:07:28;;;;;;;0.10;0.00;;;25.60;43.80;;;;;;5050888;28;20555;-46
2021/09/29 15:09:57;;;;;;;0.17;0.00;;;25.70;43.80;;;;;;5046489;28;20506;-47
2021/09/29 15:12:24;;;;;;;1.55;0.30;;;25.60;43.70;;;;;;5048267;28;20045;-50
2021/09/29 15:14:57;;;;;;;0.08;0.00;;;25.70;43.80;;;;;;5049971;28;20571;-46
2021/09/29 15:17:33;;;;;;;0.65;0.08;;;25.70;43.70;;;;;;5050940;28;20062;-47
2021/09/29 15:20:06;;;;;;;0.35;0.00;;;25.70;43.70;;;;;;5050671;28;20060;-46